Time;durP1;ratioP1;P1;durP2;ratioP2;P2;SDS_P1;SDS_P2;PMS_P1;PMS_P2;Temp;Humidity;BMP_temperature;BMP_pressure;BME280_temperature;BME280_humidity;BME280_pressure;Samples;Min_cycle;Max_cycle;Signal;HPM_P1;HPM_P2
2021/12/04 00:02:06;;;;;;;35.30;13.40;;;;;;;;;;4964121;28;20070;-86
2021/12/04 00:04:35;;;;;;;43.15;16.92;;;;;;;;;;4983554;28;20096;-86
2021/12/04 00:07:02;;;;;;;28.15;12.43;;;;;;;;;;4967534;28;20506;-86
2021/12/04 00:09:29;;;;;;;24.25;10.73;;;;;;;;;;4965631;28;20301;-86
2021/12/04 00:11:59;;;;;;;43.00;15.70;;;;;;;;;;4964927;28;20054;-86
2021/12/04 00:14:25;;;;;;;45.67;17.15;;;;;;;;;;4982500;28;20680;-86
2021/12/04 00:16:51;;;;;;;35.17;15.18;;;;;;;;;;4983144;28;20479;-86
2021/12/04 00:19:18;;;;;;;37.20;15.10;;;;;;;;;;4977976;28;20030;-86
2021/12/04 00:21:44;;;;;;;44.03;17.42;;;;;;;;;;4966134;28;20042;-87
2021/12/04 00:24:10;;;;;;;32.17;11.95;;;;;;;;;;4968269;28;20030;-87
2021/12/04 00:26:36;;;;;;;44.50;19.17;;;;;;;;;;4980509;28;20041;-86
2021/12/04 00:29:03;;;;;;;50.20;19.00;;;;;;;;;;4982441;28;20030;-86
2021/12/04 00:31:29;;;;;;;51.53;17.52;;;;;;;;;;4966400;28;20069;-87
2021/12/04 00:33:55;;;;;;;46.00;17.88;;;;;;;;;;4983194;28;20062;-86
2021/12/04 00:36:35;;;;;;;46.35;18.67;;;;;;;;;;4964627;28;20536;-87
2021/12/04 00:50:00;;;;;;;43.63;15.38;;;;;;;;;;4978654;28;20731;-86
2021/12/04 00:52:26;;;;;;;48.72;17.70;;;;;;;;;;4965672;28;20037;-86
2021/12/04 00:54:52;;;;;;;58.05;20.50;;;;;;;;;;4967282;28;20034;-86
2021/12/04 00:57:18;;;;;;;48.88;18.45;;;;;;;;;;4986872;28;20029;-86
2021/12/04 00:59:44;;;;;;;59.20;18.80;;;;;;;;;;4976796;28;20049;-86
2021/12/04 01:02:10;;;;;;;24.52;10.27;;;;;;;;;;4963996;28;20030;-86
2021/12/04 01:04:36;;;;;;;57.42;19.83;;;;;;;;;;4964556;28;20046;-86
2021/12/04 01:07:02;;;;;;;50.40;19.48;;;;;;;;;;4958498;28;20046;-86
2021/12/04 01:09:28;;;;;;;51.67;16.42;;;;;;;;;;4946873;28;20440;-86
2021/12/04 01:11:55;;;;;;;40.42;15.70;;;;;;;;;;4963749;28;20403;-86
2021/12/04 01:14:23;;;;;;;56.20;19.13;;;;;;;;;;4946966;28;20041;-86
2021/12/04 01:16:49;;;;;;;65.07;20.35;;;;;;;;;;4942838;28;20047;-86
2021/12/04 01:19:15;;;;;;;51.42;16.33;;;;;;;;;;4958650;28;20034;-86
2021/12/04 01:21:44;;;;;;;54.47;18.55;;;;;;;;;;4948910;28;21211;-86
2021/12/04 01:24:11;;;;;;;43.65;17.35;;;;;;;;;;4962923;28;20522;-86
2021/12/04 01:26:37;;;;;;;70.93;19.15;;;;;;;;;;4942962;28;20050;-86
2021/12/04 01:29:03;;;;;;;70.28;21.08;;;;;;;;;;4959048;28;20034;-86
2021/12/04 01:31:29;;;;;;;63.80;20.13;;;;;;;;;;4955929;28;20046;-86
2021/12/04 01:33:55;;;;;;;59.97;18.48;;;;;;;;;;4947980;28;20026;-87
2021/12/04 01:36:21;;;;;;;58.90;20.38;;;;;;;;;;4943998;28;20070;-87
2021/12/04 01:38:47;;;;;;;67.28;21.00;;;;;;;;;;4963636;28;20514;-86
2021/12/04 01:41:13;;;;;;;58.55;17.80;;;;;;;;;;4950601;28;20091;-86
2021/12/04 01:43:40;;;;;;;73.00;21.45;;;;;;;;;;4958088;28;20054;-86
2021/12/04 01:46:06;;;;;;;66.38;20.80;;;;;;;;;;4962356;28;20094;-86
2021/12/04 01:48:32;;;;;;;72.18;20.25;;;;;;;;;;4944931;28;20034;-86
2021/12/04 01:50:58;;;;;;;68.72;21.35;;;;;;;;;;4961116;28;20068;-86
2021/12/04 01:53:25;;;;;;;72.97;22.13;;;;;;;;;;4944405;28;20035;-87
2021/12/04 01:55:51;;;;;;;81.15;23.13;;;;;;;;;;4943889;28;20034;-87
2021/12/04 01:58:18;;;;;;;87.43;23.73;;;;;;;;;;4947282;28;20443;-87
2021/12/04 02:00:44;;;;;;;62.33;19.50;;;;;;;;;;4957743;28;20027;-85
2021/12/04 02:03:13;;;;;;;86.30;21.95;;;;;;;;;;4944674;28;20027;-86
2021/12/04 02:05:39;;;;;;;73.30;23.48;;;;;;;;;;4957678;28;20027;-86
2021/12/04 02:08:06;;;;;;;76.43;22.15;;;;;;;;;;4946862;28;20046;-86
2021/12/04 02:10:33;;;;;;;43.97;15.57;;;;;;;;;;4941615;28;20395;-87
2021/12/04 02:12:59;;;;;;;38.83;12.93;;;;;;;;;;4947426;28;20046;-86
2021/12/04 02:15:26;;;;;;;76.53;22.08;;;;;;;;;;4945955;28;20035;-87
2021/12/04 02:17:53;;;;;;;81.57;23.42;;;;;;;;;;4929747;28;20031;-86
2021/12/04 02:20:20;;;;;;;69.82;19.95;;;;;;;;;;4945451;28;20081;-86
2021/12/04 02:22:47;;;;;;;70.28;19.58;;;;;;;;;;4958998;28;20505;-86
2021/12/04 02:25:13;;;;;;;95.90;23.92;;;;;;;;;;4944135;28;20556;-86
2021/12/04 02:27:39;;;;;;;72.13;21.50;;;;;;;;;;4944298;28;20538;-86
2021/12/04 02:30:10;;;;;;;84.20;24.95;;;;;;;;;;4944813;28;20034;-86
2021/12/04 02:32:37;;;;;;;104.93;24.52;;;;;;;;;;4944200;28;20035;-87
2021/12/04 02:35:04;;;;;;;97.03;23.63;;;;;;;;;;4944792;28;20031;-86
2021/12/04 02:37:31;;;;;;;60.05;17.50;;;;;;;;;;4941739;28;20197;-87
2021/12/04 02:39:59;;;;;;;72.47;19.80;;;;;;;;;;4959958;28;20045;-86
2021/12/04 02:42:27;;;;;;;89.90;24.67;;;;;;;;;;4941858;28;20045;-86
2021/12/04 02:44:53;;;;;;;71.97;19.92;;;;;;;;;;4939916;28;20031;-86
2021/12/04 02:47:20;;;;;;;85.88;23.25;;;;;;;;;;4945696;28;20069;-87
2021/12/04 02:49:46;;;;;;;81.80;20.83;;;;;;;;;;4958867;28;20057;-86
2021/12/04 02:52:13;;;;;;;81.47;22.50;;;;;;;;;;4945479;28;20035;-86
2021/12/04 02:54:39;;;;;;;88.28;24.67;;;;;;;;;;4954734;28;20031;-86
2021/12/04 02:57:06;;;;;;;44.85;13.75;;;;;;;;;;4943399;28;20031;-86
2021/12/04 02:59:33;;;;;;;25.25;10.45;;;;;;;;;;4953417;28;20526;-86
2021/12/04 03:01:59;;;;;;;53.45;15.73;;;;;;;;;;4944378;28;20526;-86
2021/12/04 03:04:27;;;;;;;63.50;20.58;;;;;;;;;;4944296;28;20059;-86
2021/12/04 03:06:53;;;;;;;56.38;16.35;;;;;;;;;;4945821;28;20047;-86
2021/12/04 03:09:19;;;;;;;55.53;15.38;;;;;;;;;;4943750;28;20038;-86
2021/12/04 03:11:45;;;;;;;56.17;16.55;;;;;;;;;;4943145;28;20093;-86
2021/12/04 03:14:11;;;;;;;79.22;20.73;;;;;;;;;;4932706;28;20050;-87
2021/12/04 03:16:38;;;;;;;84.28;20.17;;;;;;;;;;4957415;28;20034;-87
2021/12/04 03:19:05;;;;;;;60.10;19.63;;;;;;;;;;4938117;28;20037;-87
2021/12/04 03:21:33;;;;;;;79.45;18.98;;;;;;;;;;4961826;28;20206;-87
2021/12/04 03:24:05;;;;;;;56.72;18.42;;;;;;;;;;4942155;28;20446;-86
2021/12/04 03:26:31;;;;;;;45.75;12.73;;;;;;;;;;4952553;28;20026;-87
2021/12/04 03:29:02;;;;;;;56.20;16.00;;;;;;;;;;4943494;28;20357;-86
2021/12/04 03:42:11;;;;;;;44.92;16.30;;;;;;;;;;4961223;28;20587;-87
2021/12/04 03:44:38;;;;;;;44.42;12.32;;;;;;;;;;4961111;28;20303;-86
2021/12/04 03:47:05;;;;;;;30.10;10.27;;;;;;;;;;4959371;28;20795;-87
2021/12/04 03:49:31;;;;;;;49.13;16.83;;;;;;;;;;4943699;28;20538;-87
2021/12/04 03:51:57;;;;;;;38.92;13.55;;;;;;;;;;4941324;28;20039;-86
2021/12/04 03:54:23;;;;;;;32.65;12.30;;;;;;;;;;4941196;28;20027;-86
2021/12/04 03:57:00;;;;;;;43.33;15.05;;;;;;;;;;4943912;28;20350;-86
2021/12/04 03:59:26;;;;;;;27.80;10.25;;;;;;;;;;4943781;28;20507;-86
2021/12/04 04:01:52;;;;;;;34.97;11.98;;;;;;;;;;4945468;28;20065;-86
2021/12/04 04:04:18;;;;;;;55.75;17.52;;;;;;;;;;4955926;28;20052;-86
2021/12/04 04:06:44;;;;;;;57.90;17.10;;;;;;;;;;4949222;28;20054;-85
2021/12/04 04:09:10;;;;;;;46.35;12.50;;;;;;;;;;4961891;28;22741;-87
2021/12/04 04:11:36;;;;;;;53.63;16.90;;;;;;;;;;4962170;28;20027;-87
2021/12/04 04:14:04;;;;;;;44.05;14.15;;;;;;;;;;4962255;28;20534;-86
2021/12/04 04:16:31;;;;;;;41.63;14.70;;;;;;;;;;4976707;28;20474;-86
2021/12/04 04:18:57;;;;;;;34.95;10.70;;;;;;;;;;4965125;28;20026;-86
2021/12/04 04:21:23;;;;;;;40.65;12.27;;;;;;;;;;4965679;28;20484;-87
2021/12/04 04:23:49;;;;;;;44.28;16.25;;;;;;;;;;4964139;28;20121;-87
2021/12/04 04:26:15;;;;;;;58.50;16.27;;;;;;;;;;4962336;28;20785;-86
2021/12/04 04:28:41;;;;;;;19.00;7.22;;;;;;;;;;4973886;28;20290;-86
2021/12/04 04:31:08;;;;;;;46.45;13.35;;;;;;;;;;4963902;28;20026;-86
2021/12/04 04:33:38;;;;;;;48.28;14.07;;;;;;;;;;4960668;28;20026;-86
2021/12/04 04:39:09;;;;;;;44.10;12.77;;;;;;;;;;4943683;28;20034;-87
2021/12/04 05:12:11;;;;;;;46.40;14.10;;;;;;;;;;4981993;28;20357;-86
2021/12/04 05:14:39;;;;;;;54.30;14.80;;;;;;;;;;4964709;28;20074;-86
2021/12/04 05:17:26;;;;;;;68.60;15.52;;;;;;;;;;4964471;28;20027;-86
2021/12/04 05:19:53;;;;;;;23.08;7.60;;;;;;;;;;4980143;28;20027;-87
2021/12/04 05:22:20;;;;;;;39.42;11.88;;;;;;;;;;4978285;28;20019;-86
2021/12/04 05:24:46;;;;;;;51.60;15.23;;;;;;;;;;4966039;28;20494;-87
2021/12/04 05:27:13;;;;;;;19.15;6.32;;;;;;;;;;4966525;28;20124;-87
2021/12/04 05:29:39;;;;;;;45.92;14.00;;;;;;;;;;4977629;28;20506;-87
2021/12/04 05:32:06;;;;;;;56.95;16.85;;;;;;;;;;4965787;28;20038;-88
2021/12/04 05:34:34;;;;;;;35.25;12.60;;;;;;;;;;4975482;28;20074;-87
2021/12/04 05:37:00;;;;;;;57.50;15.60;;;;;;;;;;4965465;28;20026;-86
2021/12/04 05:39:27;;;;;;;44.28;12.48;;;;;;;;;;4980995;28;20716;-86
2021/12/04 05:41:53;;;;;;;53.35;17.23;;;;;;;;;;4978348;28;20398;-86
2021/12/04 05:44:24;;;;;;;60.50;14.85;;;;;;;;;;4982870;28;20117;-86
2021/12/04 05:47:03;;;;;;;47.42;13.68;;;;;;;;;;4966290;28;20022;-86
2021/12/04 05:49:50;;;;;;;63.60;14.93;;;;;;;;;;4953335;28;20048;-87
2021/12/04 05:55:43;;;;;;;52.15;14.48;;;;;;;;;;4977778;28;20121;-87
2021/12/04 05:57:54;;;;;;;46.67;14.90;;;;;;;;;;4975646;28;20637;-86
2021/12/04 06:00:25;;;;;;;47.47;15.07;;;;;;;;;;4967462;28;20038;-86
2021/12/04 06:02:51;;;;;;;45.88;12.48;;;;;;;;;;4965380;28;20034;-87
2021/12/04 06:05:17;;;;;;;34.40;11.00;;;;;;;;;;4963417;28;20533;-87
2021/12/04 06:07:43;;;;;;;33.78;11.10;;;;;;;;;;4950614;28;20055;-87
2021/12/04 06:10:10;;;;;;;53.25;16.25;;;;;;;;;;4945335;28;20646;-87
2021/12/04 06:12:36;;;;;;;47.10;11.98;;;;;;;;;;4948545;28;20035;-86
2021/12/04 06:15:04;;;;;;;41.88;11.80;;;;;;;;;;4942662;28;20026;-86
2021/12/04 06:17:30;;;;;;;36.28;12.73;;;;;;;;;;4948313;28;20027;-86
2021/12/04 06:22:42;;;;;;;35.80;10.13;;;;;;;;;;4961087;28;20042;-86
2021/12/04 06:25:16;;;;;;;51.38;15.30;;;;;;;;;;4954532;28;20063;-86
2021/12/04 06:27:42;;;;;;;45.28;17.17;;;;;;;;;;4956787;28;20573;-86
2021/12/04 06:30:09;;;;;;;34.45;10.52;;;;;;;;;;4958991;28;20387;-87
2021/12/04 06:32:36;;;;;;;44.03;12.55;;;;;;;;;;4943470;28;20063;-86
2021/12/04 06:35:04;;;;;;;40.20;12.18;;;;;;;;;;4944793;28;20117;-87
2021/12/04 06:37:30;;;;;;;25.42;7.32;;;;;;;;;;4944324;28;20468;-85
2021/12/04 06:39:56;;;;;;;39.35;11.38;;;;;;;;;;4947854;28;20329;-86
2021/12/04 06:42:22;;;;;;;38.15;10.38;;;;;;;;;;4956960;28;20035;-86
2021/12/04 06:44:49;;;;;;;37.15;10.63;;;;;;;;;;4960938;28;20372;-86
2021/12/04 06:47:15;;;;;;;51.83;14.30;;;;;;;;;;4944093;28;20058;-86
2021/12/04 06:49:43;;;;;;;39.00;14.00;;;;;;;;;;4957545;28;20435;-86
2021/12/04 06:52:15;;;;;;;31.08;11.18;;;;;;;;;;4943484;28;20392;-87
2021/12/04 06:54:49;;;;;;;42.83;14.15;;;;;;;;;;4944764;28;20073;-87
2021/12/04 06:57:16;;;;;;;44.53;13.52;;;;;;;;;;4941765;28;20518;-87
2021/12/04 06:59:44;;;;;;;41.50;13.73;;;;;;;;;;4954797;28;20022;-86
2021/12/04 07:02:10;;;;;;;51.47;14.27;;;;;;;;;;4944494;28;20653;-87
2021/12/04 07:04:37;;;;;;;52.30;14.25;;;;;;;;;;4941252;28;20129;-86
2021/12/04 07:07:05;;;;;;;43.35;12.52;;;;;;;;;;4963438;28;20411;-86
2021/12/04 07:09:31;;;;;;;51.95;12.65;;;;;;;;;;4942540;28;20768;-87
2021/12/04 07:11:59;;;;;;;48.10;14.60;;;;;;;;;;4944979;28;20475;-87
2021/12/04 07:14:25;;;;;;;42.63;12.00;;;;;;;;;;4943677;28;20471;-87
2021/12/04 07:16:51;;;;;;;72.15;19.25;;;;;;;;;;4945938;28;20034;-88
2021/12/04 07:19:17;;;;;;;64.78;16.42;;;;;;;;;;4943329;28;20498;-86
2021/12/04 07:21:45;;;;;;;50.53;13.98;;;;;;;;;;4943604;28;20038;-87
2021/12/04 07:24:11;;;;;;;39.63;10.52;;;;;;;;;;4958017;28;20059;-86
2021/12/04 07:26:37;;;;;;;42.20;11.55;;;;;;;;;;4941306;28;20041;-87
2021/12/04 07:29:04;;;;;;;52.95;12.48;;;;;;;;;;4943860;28;20118;-86
2021/12/04 07:31:30;;;;;;;36.53;10.88;;;;;;;;;;4960711;28;20372;-87
2021/12/04 07:33:56;;;;;;;45.40;12.35;;;;;;;;;;4945710;28;20316;-86
2021/12/04 07:36:23;;;;;;;54.92;15.63;;;;;;;;;;4945343;28;20411;-86
2021/12/04 07:38:49;;;;;;;53.92;13.07;;;;;;;;;;4942310;28;20027;-87
2021/12/04 07:41:16;;;;;;;36.35;11.13;;;;;;;;;;4944311;28;20030;-88
2021/12/04 07:43:42;;;;;;;35.47;9.57;;;;;;;;;;4943210;28;20027;-86
2021/12/04 07:46:08;;;;;;;15.63;6.28;;;;;;;;;;4948416;28;20061;-87
2021/12/04 07:48:34;;;;;;;62.42;16.10;;;;;;;;;;4942418;28;20042;-87
2021/12/04 07:51:02;;;;;;;72.03;16.15;;;;;;;;;;4946148;28;20038;-86
2021/12/04 07:53:28;;;;;;;16.67;5.88;;;;;;;;;;4941268;28;20550;-86
2021/12/04 07:55:54;;;;;;;58.83;15.38;;;;;;;;;;4956571;28;20503;-86
2021/12/04 07:58:20;;;;;;;62.95;15.20;;;;;;;;;;4956031;28;20058;-86
2021/12/04 08:00:46;;;;;;;47.67;11.02;;;;;;;;;;4958128;28;20035;-86
2021/12/04 08:03:13;;;;;;;52.70;12.55;;;;;;;;;;4946539;28;20039;-87
2021/12/04 08:05:39;;;;;;;55.72;14.90;;;;;;;;;;4957955;28;20750;-86
2021/12/04 08:08:05;;;;;;;63.85;14.68;;;;;;;;;;4958053;28;20566;-87
2021/12/04 08:10:31;;;;;;;56.63;14.57;;;;;;;;;;4972827;28;20520;-86
2021/12/04 08:12:59;;;;;;;43.50;12.50;;;;;;;;;;4962820;28;20023;-87
2021/12/04 08:15:25;;;;;;;47.47;14.05;;;;;;;;;;4978560;28;20084;-87
2021/12/04 08:17:51;;;;;;;50.83;12.50;;;;;;;;;;4977699;28;20054;-87
2021/12/04 08:20:17;;;;;;;56.63;13.82;;;;;;;;;;4969401;28;20044;-86
2021/12/04 08:22:44;;;;;;;52.42;14.00;;;;;;;;;;4979105;28;20030;-87
2021/12/04 08:25:11;;;;;;;43.72;13.02;;;;;;;;;;4960851;28;20042;-87
2021/12/04 08:27:38;;;;;;;41.95;12.85;;;;;;;;;;4960842;28;20039;-86
2021/12/04 08:30:05;;;;;;;40.22;13.10;;;;;;;;;;4977199;28;20085;-88
2021/12/04 08:32:31;;;;;;;40.85;12.45;;;;;;;;;;4966014;28;20049;-87
2021/12/04 08:34:57;;;;;;;35.03;9.65;;;;;;;;;;4963118;28;20806;-87
2021/12/04 08:37:23;;;;;;;21.70;8.77;;;;;;;;;;4966073;28;20037;-86
2021/12/04 08:39:49;;;;;;;21.20;8.95;;;;;;;;;;4977291;28;20026;-87
2021/12/04 08:42:15;;;;;;;30.80;11.65;;;;;;;;;;4980547;28;20034;-86
2021/12/04 08:44:43;;;;;;;39.35;11.32;;;;;;;;;;4978854;28;20038;-87
2021/12/04 08:47:09;;;;;;;42.47;12.02;;;;;;;;;;4966041;28;20712;-86
2021/12/04 08:49:35;;;;;;;45.85;12.00;;;;;;;;;;4975588;28;20046;-87
2021/12/04 08:52:04;;;;;;;38.25;12.10;;;;;;;;;;4958897;28;20731;-86
2021/12/04 08:54:30;;;;;;;11.90;4.00;;;;;;;;;;4974309;28;20279;-87
2021/12/04 08:56:56;;;;;;;29.70;11.48;;;;;;;;;;4980748;28;20034;-86
2021/12/04 08:59:22;;;;;;;27.48;10.48;;;;;;;;;;4968558;28;20049;-86
2021/12/04 09:01:48;;;;;;;25.90;8.88;;;;;;;;;;4978574;28;20077;-88
2021/12/04 09:04:20;;;;;;;22.38;8.70;;;;;;;;;;4960306;28;20048;-86
2021/12/04 09:06:46;;;;;;;28.52;9.98;;;;;;;;;;4963223;28;20030;-86
2021/12/04 09:09:13;;;;;;;37.40;10.60;;;;;;;;;;4985031;28;20530;-86
2021/12/04 09:11:44;;;;;;;15.85;6.85;;;;;;;;;;4979941;28;20038;-86
2021/12/04 09:14:11;;;;;;;38.15;10.70;;;;;;;;;;4981703;28;20065;-86
2021/12/04 09:16:38;;;;;;;36.00;10.23;;;;;;;;;;4966212;28;20774;-87
2021/12/04 09:19:04;;;;;;;30.75;10.80;;;;;;;;;;4964166;28;20505;-87
2021/12/04 09:21:30;;;;;;;37.88;9.75;;;;;;;;;;4972453;28;20573;-86
2021/12/04 09:24:17;;;;;;;35.05;11.73;;;;;;;;;;4982380;28;20551;-86
2021/12/04 09:32:18;;;;;;;29.70;10.20;;;;;;;;;;4978145;28;20042;-86
2021/12/04 10:18:47;;;;;;;16.67;8.30;;;;;;;;;;4976142;28;20034;-87
2021/12/04 10:34:48;;;;;;;21.23;8.70;;;;;;;;;;4947655;28;20109;-86
2021/12/04 10:37:28;;;;;;;20.17;8.90;;;;;;;;;;4972149;28;20054;-86
2021/12/04 10:39:56;;;;;;;20.02;9.27;;;;;;;;;;4962377;28;20026;-85
2021/12/04 10:42:26;;;;;;;16.15;7.60;;;;;;;;;;4952372;28;20038;-88
2021/12/04 10:44:54;;;;;;;21.17;8.75;;;;;;;;;;4979058;28;20061;-87
2021/12/04 10:47:28;;;;;;;16.85;6.00;;;;;;;;;;4970738;28;20026;-87
2021/12/04 10:52:32;;;;;;;20.67;8.95;;;;;;;;;;4974702;28;20566;-87
2021/12/04 10:55:29;;;;;;;14.18;6.78;;;;;;;;;;4980041;28;20514;-89
2021/12/04 11:00:45;;;;;;;10.55;5.70;;;;;;;;;;4978107;28;20042;-85
2021/12/04 11:38:44;;;;;;;15.23;7.05;;;;;;;;;;4977080;28;20038;-85
2021/12/04 11:41:24;;;;;;;10.38;4.90;;;;;;;;;;4977776;28;20351;-86
2021/12/04 11:43:59;;;;;;;12.10;6.78;;;;;;;;;;4958076;28;20041;-86
2021/12/04 11:46:44;;;;;;;18.95;7.82;;;;;;;;;;4980921;28;20026;-86
2021/12/04 11:49:21;;;;;;;22.65;8.18;;;;;;;;;;4981561;28;20060;-86
2021/12/04 11:52:00;;;;;;;20.25;8.05;;;;;;;;;;4983589;28;20034;-88
2021/12/04 11:54:34;;;;;;;18.88;6.80;;;;;;;;;;4975503;28;20030;-86
2021/12/04 11:57:02;;;;;;;17.30;7.95;;;;;;;;;;4982290;28;20026;-86
2021/12/04 11:59:29;;;;;;;17.17;7.57;;;;;;;;;;4977854;28;20367;-88
2021/12/04 12:01:56;;;;;;;17.92;7.18;;;;;;;;;;4967245;28;20372;-86
2021/12/04 12:04:31;;;;;;;21.60;8.88;;;;;;;;;;4980393;28;20048;-86
2021/12/04 12:06:57;;;;;;;19.20;8.38;;;;;;;;;;4955478;28;20035;-87
2021/12/04 12:09:29;;;;;;;22.33;9.30;;;;;;;;;;4972435;28;20395;-86
2021/12/04 12:11:56;;;;;;;19.30;7.85;;;;;;;;;;4944332;28;20491;-86
2021/12/04 12:14:24;;;;;;;17.45;7.47;;;;;;;;;;4962711;28;20153;-86
2021/12/04 12:16:53;;;;;;;17.05;7.07;;;;;;;;;;4961945;28;20049;-87
2021/12/04 12:19:25;;;;;;;16.45;8.10;;;;;;;;;;4934350;28;20497;-88
2021/12/04 12:21:57;;;;;;;6.40;3.33;;;;;;;;;;4947394;28;20622;-88
2021/12/04 12:33:00;;;;;;;14.48;6.90;;;;;;;;;;4961276;28;20130;-89
2021/12/04 12:38:16;;;;;;;22.23;9.35;;;;;;;;;;4964287;28;20058;-89
2021/12/04 12:40:42;;;;;;;26.42;9.73;;;;;;;;;;4956135;28;20495;-89
2021/12/04 12:43:13;;;;;;;24.13;9.65;;;;;;;;;;4946952;28;20118;-89
2021/12/04 12:45:39;;;;;;;20.90;8.85;;;;;;;;;;4947569;28;20491;-90
2021/12/04 12:48:06;;;;;;;26.05;10.45;;;;;;;;;;4948761;28;20030;-89
2021/12/04 12:50:34;;;;;;;26.10;10.45;;;;;;;;;;4946023;28;20049;-89
2021/12/04 12:53:05;;;;;;;26.90;9.93;;;;;;;;;;4960666;28;20019;-89
2021/12/04 12:55:33;;;;;;;22.60;8.77;;;;;;;;;;4946555;28;20317;-89
2021/12/04 12:58:11;;;;;;;24.92;11.20;;;;;;;;;;4947664;28;20027;-89
2021/12/04 13:11:52;;;;;;;33.97;13.48;;;;;;;;;;4982750;28;20045;-89
2021/12/04 13:14:28;;;;;;;31.85;11.82;;;;;;;;;;4978401;28;20065;-89
2021/12/04 13:16:53;;;;;;;;;;;;;;;;;;4978834;28;20036;-89
2021/12/04 13:19:22;;;;;;;29.80;11.77;;;;;;;;;;4961403;28;19910;-89
2021/12/04 13:21:49;;;;;;;27.52;10.88;;;;;;;;;;4965736;28;20034;-89
2021/12/04 13:24:16;;;;;;;37.58;14.68;;;;;;;;;;4967064;28;20041;-89
2021/12/04 13:26:44;;;;;;;38.03;14.85;;;;;;;;;;4964892;28;20030;-89
2021/12/04 13:29:11;;;;;;;30.73;13.75;;;;;;;;;;4966788;28;20031;-89
2021/12/04 13:31:38;;;;;;;33.00;14.48;;;;;;;;;;4968462;28;20445;-88
2021/12/04 13:34:05;;;;;;;37.88;16.10;;;;;;;;;;4967648;28;20121;-89
2021/12/04 13:36:32;;;;;;;38.90;14.85;;;;;;;;;;4968769;28;20109;-89
2021/12/04 13:39:00;;;;;;;33.33;14.02;;;;;;;;;;4961926;28;20041;-89
2021/12/04 13:41:28;;;;;;;28.25;12.65;;;;;;;;;;4980426;28;20498;-89
2021/12/04 13:43:55;;;;;;;35.22;14.23;;;;;;;;;;4967543;28;20149;-89
2021/12/04 13:46:21;;;;;;;35.33;14.98;;;;;;;;;;4965464;28;20034;-90
2021/12/04 13:48:48;;;;;;;36.20;14.18;;;;;;;;;;4979325;28;20038;-89
2021/12/04 13:51:14;;;;;;;35.47;15.13;;;;;;;;;;4969187;28;21106;-89
2021/12/04 13:53:44;;;;;;;28.05;12.75;;;;;;;;;;4965340;28;20030;-88
2021/12/04 13:56:12;;;;;;;45.80;16.98;;;;;;;;;;4964561;28;20038;-89
2021/12/04 13:58:49;;;;;;;41.42;18.35;;;;;;;;;;4982281;28;20030;-90
2021/12/04 14:01:16;;;;;;;34.13;15.77;;;;;;;;;;4976782;28;20096;-90
2021/12/04 14:03:42;;;;;;;42.45;14.20;;;;;;;;;;4962360;28;21088;-87
2021/12/04 14:06:10;;;;;;;39.85;13.25;;;;;;;;;;4957781;28;20129;-89
2021/12/04 14:08:36;;;;;;;37.58;14.00;;;;;;;;;;4963977;28;20311;-88
2021/12/04 14:11:02;;;;;;;47.80;17.33;;;;;;;;;;4948507;28;20050;-87
2021/12/04 14:13:28;;;;;;;47.78;15.63;;;;;;;;;;4945064;28;20058;-89
2021/12/04 14:15:55;;;;;;;43.08;15.85;;;;;;;;;;4943243;28;20042;-88
2021/12/04 14:18:22;;;;;;;45.22;17.17;;;;;;;;;;4948692;28;20709;-88
2021/12/04 14:20:53;;;;;;;46.78;16.42;;;;;;;;;;4944199;28;20165;-88
2021/12/04 14:23:19;;;;;;;51.38;16.92;;;;;;;;;;4955199;28;20398;-88
2021/12/04 14:25:51;;;;;;;49.50;18.38;;;;;;;;;;4942006;28;20072;-89
2021/12/04 14:28:19;;;;;;;54.08;18.92;;;;;;;;;;4959553;28;20043;-87
2021/12/04 14:30:50;;;;;;;53.50;18.15;;;;;;;;;;4947028;28;20068;-91
2021/12/04 14:33:19;;;;;;;49.70;16.80;;;;;;;;;;4929503;28;20194;-87
2021/12/04 14:35:47;;;;;;;59.65;19.63;;;;;;;;;;4956411;28;20517;-88
2021/12/04 14:38:17;;;;;;;57.42;20.42;;;;;;;;;;4945895;28;20136;-87
2021/12/04 14:40:46;;;;;;;61.35;20.50;;;;;;;;;;4947099;28;20482;-88
2021/12/04 14:43:14;;;;;;;61.45;19.90;;;;;;;;;;4947729;28;20070;-88
2021/12/04 14:45:46;;;;;;;65.05;20.98;;;;;;;;;;4965257;28;20105;-87
2021/12/04 14:48:15;;;;;;;60.03;18.40;;;;;;;;;;4963786;28;20031;-88
2021/12/04 14:50:43;;;;;;;59.15;18.73;;;;;;;;;;4952975;28;20030;-89
2021/12/04 14:53:12;;;;;;;73.32;20.23;;;;;;;;;;4958885;28;20105;-86
2021/12/04 14:55:40;;;;;;;61.17;18.42;;;;;;;;;;4944150;28;20093;-88
2021/12/04 14:58:12;;;;;;;53.38;19.67;;;;;;;;;;4943910;28;20249;-89
2021/12/04 15:00:40;;;;;;;56.53;18.27;;;;;;;;;;4958698;28;20026;-88
2021/12/04 15:03:09;;;;;;;58.95;18.98;;;;;;;;;;4947063;28;20794;-88
2021/12/04 15:05:37;;;;;;;54.00;17.45;;;;;;;;;;4945442;28;20039;-88
2021/12/04 15:08:11;;;;;;;62.97;18.50;;;;;;;;;;4948624;28;20066;-88
2021/12/04 15:10:38;;;;;;;62.95;18.35;;;;;;;;;;4973171;28;20165;-88
2021/12/04 15:13:06;;;;;;;49.53;17.65;;;;;;;;;;4963078;28;20043;-88
2021/12/04 15:15:34;;;;;;;54.65;18.33;;;;;;;;;;4981707;28;20026;-88
2021/12/04 15:18:02;;;;;;;52.40;18.40;;;;;;;;;;4979909;28;20076;-88
2021/12/04 15:20:33;;;;;;;54.10;17.23;;;;;;;;;;4973328;28;20038;-89
2021/12/04 15:23:03;;;;;;;52.47;17.40;;;;;;;;;;4980463;28;20125;-88
2021/12/04 15:25:32;;;;;;;50.33;17.50;;;;;;;;;;4963095;28;20076;-88
2021/12/04 15:27:58;;;;;;;50.38;16.77;;;;;;;;;;4962505;28;20026;-88
2021/12/04 15:30:25;;;;;;;55.92;18.85;;;;;;;;;;4962322;28;20022;-89
2021/12/04 15:32:52;;;;;;;52.72;18.42;;;;;;;;;;4979587;28;20227;-89
2021/12/04 15:35:31;;;;;;;53.65;18.42;;;;;;;;;;4963857;28;20050;-87
2021/12/04 15:38:10;;;;;;;57.92;20.17;;;;;;;;;;4966875;28;20018;-90
2021/12/04 15:40:52;;;;;;;64.25;19.98;;;;;;;;;;4964760;28;20449;-90
2021/12/04 15:43:54;;;;;;;64.95;19.50;;;;;;;;;;4963496;28;20557;-90
2021/12/04 15:46:31;;;;;;;61.15;19.38;;;;;;;;;;4964096;28;20026;-90
2021/12/04 15:54:13;;;;;;;67.60;21.40;;;;;;;;;;4971395;28;20045;-90
2021/12/04 15:56:46;;;;;;;76.32;21.85;;;;;;;;;;4959746;28;20030;-89
2021/12/04 15:59:13;;;;;;;72.78;21.50;;;;;;;;;;4958780;28;20041;-90
2021/12/04 16:01:39;;;;;;;55.22;18.65;;;;;;;;;;4964502;28;20403;-89
2021/12/04 16:04:05;;;;;;;68.32;19.17;;;;;;;;;;4961636;28;20035;-89
2021/12/04 16:06:38;;;;;;;77.65;19.77;;;;;;;;;;4962290;28;20030;-89
2021/12/04 16:09:04;;;;;;;65.95;21.23;;;;;;;;;;4974629;28;20092;-88
2021/12/04 16:11:35;;;;;;;66.25;20.13;;;;;;;;;;4959505;28;20050;-87
2021/12/04 16:14:03;;;;;;;67.10;20.50;;;;;;;;;;4964210;28;20383;-89
2021/12/04 16:16:32;;;;;;;63.67;19.25;;;;;;;;;;4950384;28;20370;-89
2021/12/04 16:18:59;;;;;;;61.35;19.30;;;;;;;;;;4959395;28;20030;-88
2021/12/04 16:21:25;;;;;;;59.30;19.77;;;;;;;;;;4960564;28;20058;-88
2021/12/04 16:23:54;;;;;;;74.43;20.08;;;;;;;;;;4967675;28;20493;-90
2021/12/04 16:26:27;;;;;;;60.47;19.52;;;;;;;;;;4974935;28;21074;-89
2021/12/04 16:37:15;;;;;;;70.00;20.50;;;;;;;;;;4950492;28;20054;-92
2021/12/04 16:39:33;;;;;;;;;;;;;;;;;;4984189;28;20030;-90
2021/12/04 16:41:59;;;;;;;64.30;19.45;;;;;;;;;;4981293;28;20146;-90
2021/12/04 16:44:26;;;;;;;55.85;19.25;;;;;;;;;;4980688;28;20130;-88
2021/12/04 16:46:53;;;;;;;90.47;24.45;;;;;;;;;;4967576;28;20034;-87
2021/12/04 16:49:20;;;;;;;71.72;20.77;;;;;;;;;;4967462;28;20038;-88
2021/12/04 16:59:49;;;;;;;70.15;19.42;;;;;;;;;;4981619;28;20030;-88
2021/12/04 17:02:16;;;;;;;71.63;21.02;;;;;;;;;;4968862;28;20041;-89
2021/12/04 17:04:52;;;;;;;85.25;23.05;;;;;;;;;;4977355;28;20030;-89
2021/12/04 17:07:20;;;;;;;;;;;;;;;;;;4968085;28;20027;-90
2021/12/04 17:09:53;;;;;;;65.90;22.02;;;;;;;;;;4970538;28;20338;-89
2021/12/04 17:12:19;;;;;;;55.28;19.88;;;;;;;;;;4983268;28;20034;-88
2021/12/04 17:14:47;;;;;;;68.85;19.90;;;;;;;;;;4963011;28;20077;-88
2021/12/04 17:17:15;;;;;;;65.80;20.27;;;;;;;;;;4981204;28;20416;-88
2021/12/04 17:19:42;;;;;;;69.25;20.65;;;;;;;;;;4979960;28;20778;-88
2021/12/04 17:22:09;;;;;;;62.95;19.27;;;;;;;;;;4978841;28;20407;-86
2021/12/04 17:24:35;;;;;;;74.53;22.65;;;;;;;;;;4979392;28;20034;-88
2021/12/04 17:27:03;;;;;;;69.85;23.67;;;;;;;;;;4976570;28;20092;-88
2021/12/04 17:29:30;;;;;;;60.22;21.45;;;;;;;;;;4983471;28;20497;-88
2021/12/04 17:31:57;;;;;;;75.63;24.33;;;;;;;;;;4964871;28;20053;-88
2021/12/04 17:34:23;;;;;;;63.13;21.50;;;;;;;;;;4980040;28;20034;-88
2021/12/04 17:36:49;;;;;;;54.65;17.90;;;;;;;;;;4966618;28;20058;-88
2021/12/04 17:39:16;;;;;;;64.22;20.40;;;;;;;;;;4966797;28;20077;-89
2021/12/04 17:41:43;;;;;;;69.70;24.70;;;;;;;;;;4963715;28;20030;-88
2021/12/04 17:44:14;;;;;;;47.55;17.50;;;;;;;;;;4982021;28;20141;-88
2021/12/04 17:46:40;;;;;;;68.10;22.27;;;;;;;;;;4973750;28;20022;-87
2021/12/04 17:49:07;;;;;;;46.30;17.90;;;;;;;;;;4980980;28;20056;-87
2021/12/04 17:51:34;;;;;;;57.95;20.55;;;;;;;;;;4977348;28;20411;-89
2021/12/04 17:54:01;;;;;;;39.08;14.45;;;;;;;;;;4978009;28;20026;-87
2021/12/04 17:56:27;;;;;;;60.40;20.23;;;;;;;;;;4973634;28;20125;-89